Padus, Wisconsin
Current Conditions -  °F | °C
As of 11:55 AM on Sunday 25 Jan 2015 (Local Time) from KAIG Reporting Station
Clear Clear  
Wind Chill:   Ceiling: Unl
Heat Index: 16°   Visibility: 10mi
Dew Point:   Wind: 8mph
Humidity: 68%   Direction: 90°E
Pressure: 30"   Gusts: NA
Location:  45.4387°N, 88.6036°W
Report Text: KAIG 251755Z AUTO 09007KT 10SM CLR M09/M14 A3000 RMK AO2 T10901140 11090 21105
Loading
Personal Weather Stations






























Interactive Weather Map New forecast layout! Learn more

10-Day Weather Forecast

Advertisements
Track Severe Weather on mobile